createdAt,value
2018-06-13T00:00:30.826Z,3.30
2018-06-13T00:03:01.218Z,3.97
2018-06-13T00:05:32.556Z,3.57
2018-06-13T00:08:01.405Z,3.67
2018-06-13T00:10:34.424Z,3.87
2018-06-13T00:13:03.038Z,3.90
2018-06-13T00:15:31.664Z,3.70
2018-06-13T00:18:01.189Z,3.63
2018-06-13T00:20:29.843Z,3.30
2018-06-13T00:23:00.466Z,3.70
2018-06-13T00:25:28.761Z,3.90
2018-06-13T00:27:57.934Z,4.30
2018-06-13T00:30:26.591Z,4.70
2018-06-13T00:32:54.794Z,3.90
2018-06-13T00:35:23.055Z,3.97
2018-06-13T00:37:51.572Z,4.10
2018-06-13T00:40:20.263Z,3.77
2018-06-13T00:42:49.855Z,4.50
2018-06-13T00:45:18.349Z,3.67
2018-06-13T00:47:47.033Z,4.40
2018-06-13T00:50:15.325Z,4.80
2018-06-13T00:52:44.258Z,4.53
2018-06-13T00:55:12.863Z,4.07
2018-06-13T00:57:41.147Z,3.97
2018-06-13T01:00:10.442Z,4.43
2018-06-13T01:02:39.772Z,4.30
2018-06-13T01:05:08.950Z,4.43
2018-06-13T01:07:37.906Z,4.00
2018-06-13T01:10:06.493Z,4.33
2018-06-13T01:12:36.531Z,4.83
2018-06-13T01:15:06.671Z,4.13
2018-06-13T01:17:35.348Z,3.67
2018-06-13T01:20:03.891Z,4.10
2018-06-13T01:22:32.751Z,4.10
2018-06-13T01:25:02.111Z,4.10
2018-06-13T01:27:31.504Z,4.30
2018-06-13T01:30:01.955Z,3.70
2018-06-13T01:32:31.999Z,4.23
2018-06-13T01:35:00.735Z,4.40
2018-06-13T01:41:00.933Z,4.33
2018-06-13T01:43:29.880Z,4.77
2018-06-13T01:45:58.592Z,4.37
2018-06-13T01:48:29.002Z,4.37
2018-06-13T01:50:59.126Z,4.30
2018-06-13T01:53:29.415Z,4.47
2018-06-13T01:56:27.118Z,4.83
2018-06-13T01:58:55.814Z,4.80
2018-06-13T02:01:24.189Z,5.07
2018-06-13T02:03:53.023Z,4.73
2018-06-13T02:06:21.450Z,4.40
2018-06-13T02:08:50.356Z,4.50
2018-06-13T02:11:19.150Z,4.43
2018-06-13T02:13:48.009Z,4.63
2018-06-13T02:16:17.515Z,5.40
2018-06-13T02:18:46.554Z,5.30
2018-06-13T02:21:15.689Z,5.10
2018-06-13T02:23:44.071Z,5.00
2018-06-13T02:26:13.893Z,4.53
2018-06-13T02:28:42.994Z,5.30
2018-06-13T02:31:12.511Z,4.53
2018-06-13T02:33:41.451Z,4.60
2018-06-13T02:36:11.058Z,5.53
2018-06-13T02:38:39.402Z,4.30
2018-06-13T02:41:08.590Z,4.77
2018-06-13T02:43:36.937Z,4.90
2018-06-13T02:46:11.560Z,5.27
2018-06-13T02:48:40.507Z,4.80
2018-06-13T02:51:10.761Z,4.60
2018-06-13T02:53:39.026Z,5.37
2018-06-13T02:56:08.767Z,5.13
2018-06-13T02:58:38.066Z,4.90
2018-06-13T03:01:06.428Z,5.00
2018-06-13T03:03:35.304Z,5.20
2018-06-13T03:06:05.114Z,4.93
2018-06-13T03:08:34.499Z,5.10
2018-06-13T03:11:05.413Z,5.43
2018-06-13T03:13:34.279Z,5.33
2018-06-13T03:16:03.236Z,5.07
2018-06-13T03:18:32.408Z,5.00
2018-06-13T03:21:01.509Z,5.57
2018-06-13T03:23:30.080Z,5.20
2018-06-13T03:25:58.935Z,5.87
2018-06-13T03:28:27.702Z,5.30
2018-06-13T03:30:56.613Z,5.53
2018-06-13T03:33:25.973Z,5.33
2018-06-13T03:35:55.479Z,5.93
2018-06-13T03:38:25.537Z,5.13
2018-06-13T03:40:57.380Z,5.50
2018-06-13T03:43:26.739Z,5.43
2018-06-13T03:45:55.778Z,5.03
2018-06-13T03:48:24.791Z,5.70
2018-06-13T03:50:54.123Z,5.47
2018-06-13T03:53:23.474Z,5.27
2018-06-13T03:55:52.833Z,5.53
2018-06-13T03:58:21.500Z,5.17
2018-06-13T04:00:51.650Z,5.37
2018-06-13T04:03:20.261Z,5.50
2018-06-13T04:05:49.690Z,6.10
2018-06-13T04:08:18.760Z,5.90
2018-06-13T04:10:48.288Z,5.20
2018-06-13T04:13:17.021Z,5.50
2018-06-13T04:15:47.062Z,5.57
2018-06-13T04:18:18.102Z,5.77
2018-06-13T04:20:47.388Z,6.13
2018-06-13T04:23:16.608Z,5.57
2018-06-13T04:25:45.396Z,5.47
2018-06-13T04:28:14.449Z,5.80
2018-06-13T04:30:43.418Z,5.70
2018-06-13T04:33:12.481Z,4.97
2018-06-13T04:35:42.327Z,5.80
2018-06-13T04:38:12.168Z,5.43
2018-06-13T04:40:46.262Z,6.27
2018-06-13T04:43:15.107Z,5.83
2018-06-13T04:45:48.544Z,5.37
2018-06-13T04:48:17.892Z,5.43
2018-06-13T04:50:47.470Z,6.10
2018-06-13T04:53:17.506Z,6.37
2018-06-13T04:55:48.467Z,5.37
2018-06-13T04:58:19.312Z,6.03
2018-06-13T05:00:48.141Z,6.73
2018-06-13T05:03:17.115Z,5.93
2018-06-13T05:05:47.179Z,5.77
2018-06-13T05:08:17.734Z,5.57
2018-06-13T05:10:46.055Z,6.50
2018-06-13T05:13:14.631Z,6.40
2018-06-13T05:15:48.327Z,6.27
2018-06-13T05:20:53.609Z,6.50
2018-06-13T05:23:22.808Z,6.63
2018-06-13T05:25:52.915Z,6.07
2018-06-13T05:28:23.913Z,6.90
2018-06-13T05:30:52.395Z,6.87
2018-06-13T05:33:21.391Z,6.77
2018-06-13T05:35:51.606Z,7.97
2018-06-13T05:38:20.599Z,7.43
2018-06-13T05:40:51.292Z,7.73
2018-06-13T05:43:24.232Z,7.30
2018-06-13T05:46:04.752Z,6.87
2018-06-13T05:48:34.568Z,6.73
2018-06-13T05:51:07.626Z,6.70
2018-06-13T05:53:42.125Z,7.10
2018-06-13T05:56:45.783Z,7.17
2018-06-13T05:59:16.563Z,7.00
2018-06-13T06:01:46.135Z,15.67
2018-06-13T06:04:20.144Z,6.80
2018-06-13T06:06:51.803Z,6.27
2018-06-13T06:09:20.479Z,5.97
2018-06-13T06:11:50.953Z,6.17
2018-06-13T06:14:19.937Z,6.30
2018-06-13T06:16:55.936Z,6.80
2018-06-13T06:22:28.509Z,6.33
2018-06-13T06:24:58.500Z,5.03
2018-06-13T06:27:35.494Z,4.90
2018-06-13T06:30:04.998Z,5.13
2018-06-13T06:32:34.724Z,5.37
2018-06-13T06:35:03.534Z,5.40
2018-06-13T06:37:32.861Z,5.27
2018-06-13T06:40:04.116Z,4.83
2018-06-13T06:42:35.739Z,5.07
2018-06-13T06:45:04.953Z,5.00
2018-06-13T06:47:35.725Z,5.10
2018-06-13T06:50:07.795Z,5.10
2018-06-13T06:52:46.792Z,6.07
2018-06-13T06:55:16.507Z,5.13
2018-06-13T06:57:44.831Z,5.97
2018-06-13T07:00:15.593Z,5.27
2018-06-13T07:02:49.007Z,4.90
2018-06-13T07:05:25.960Z,5.27
2018-06-13T07:07:58.845Z,4.87
2018-06-13T07:10:29.156Z,5.00
2018-06-13T07:13:04.834Z,5.80
2018-06-13T07:15:34.480Z,5.80
2018-06-13T07:18:15.047Z,6.20
2018-06-13T07:20:45.134Z,6.23
2018-06-13T07:23:13.993Z,6.13
2018-06-13T07:25:43.058Z,7.53
2018-06-13T07:28:12.097Z,7.00
2018-06-13T07:30:40.395Z,6.63
2018-06-13T07:33:08.921Z,6.93
2018-06-13T07:35:38.477Z,7.17
2018-06-13T07:38:07.675Z,8.13
2018-06-13T07:40:41.232Z,9.63
2018-06-13T07:43:10.037Z,8.70
2018-06-13T07:45:39.096Z,9.83
2018-06-13T07:48:13.980Z,9.90
2018-06-13T07:50:43.551Z,9.73
2018-06-13T07:53:21.825Z,10.27
2018-06-13T07:55:52.058Z,7.83
2018-06-13T07:58:27.536Z,8.57
2018-06-13T08:00:59.316Z,7.93
2018-06-13T08:03:29.957Z,8.23
2018-06-13T08:06:00.139Z,7.63
2018-06-13T08:08:36.696Z,7.70
2018-06-13T08:11:13.641Z,7.43
2018-06-13T08:13:48.959Z,6.80
2018-06-13T08:16:18.417Z,6.47
2018-06-13T08:18:52.291Z,8.00
2018-06-13T08:27:48.529Z,5.80
2018-06-13T08:30:17.847Z,5.57
2018-06-13T08:32:48.142Z,5.93
2018-06-13T08:35:19.867Z,5.57
2018-06-13T08:38:03.307Z,4.90
2018-06-13T08:40:40.566Z,5.00
2018-06-13T08:43:11.904Z,4.77
2018-06-13T08:45:41.270Z,5.47
2018-06-13T08:48:11.014Z,4.50
2018-06-13T08:50:39.675Z,5.27
2018-06-13T08:53:09.030Z,5.40
2018-06-13T08:55:38.829Z,4.50
2018-06-13T09:00:50.975Z,3.97
2018-06-13T09:03:26.796Z,5.10
2018-06-13T09:05:57.298Z,5.00
2018-06-13T09:08:31.266Z,4.53
2018-06-13T09:11:01.984Z,4.83
2018-06-13T09:13:35.727Z,4.93
2018-06-13T09:18:53.577Z,5.17
2018-06-13T09:21:23.904Z,15.10
2018-06-13T09:26:33.444Z,4.77
2018-06-13T09:29:13.866Z,5.77
2018-06-13T09:31:43.047Z,5.07
2018-06-13T09:34:18.727Z,5.30
2018-06-13T09:36:50.310Z,5.40
2018-06-13T09:39:26.068Z,4.33
2018-06-13T09:42:02.815Z,4.60
2018-06-13T09:47:23.458Z,5.00
2018-06-13T09:49:57.774Z,4.80
2018-06-13T09:55:18.441Z,5.20
2018-06-13T09:58:21.662Z,4.20
2018-06-13T10:01:01.644Z,4.57
2018-06-13T10:03:37.167Z,4.27
2018-06-13T10:06:06.887Z,4.30
2018-06-13T10:08:37.080Z,4.40
2018-06-13T10:11:08.757Z,6.87
2018-06-13T10:13:37.497Z,4.80
2018-06-13T10:16:23.735Z,4.20
2018-06-13T10:18:53.653Z,5.30
2018-06-13T10:21:23.507Z,4.30
2018-06-13T10:26:26.746Z,6.80
2018-06-13T10:28:55.847Z,4.63
2018-06-13T10:31:25.284Z,3.90
2018-06-13T10:33:53.965Z,5.13
2018-06-13T10:36:38.359Z,3.53
2018-06-13T10:39:08.457Z,3.80
2018-06-13T10:44:13.054Z,3.93
2018-06-13T10:46:42.700Z,4.00
2018-06-13T10:49:16.989Z,3.90
2018-06-13T10:51:45.952Z,3.53
2018-06-13T10:54:16.303Z,3.93
2018-06-13T10:56:51.890Z,3.67
2018-06-13T10:59:23.885Z,11.07
2018-06-13T11:01:52.709Z,7.23
2018-06-13T11:04:24.391Z,3.80
2018-06-13T11:07:03.474Z,27.83
2018-06-13T11:09:34.207Z,3.80
2018-06-13T11:12:07.926Z,4.00
2018-06-13T11:17:17.436Z,3.57
2018-06-13T11:19:46.878Z,3.40
2018-06-13T11:22:17.119Z,3.60
2018-06-13T11:24:50.500Z,3.83
2018-06-13T11:27:20.620Z,3.73
2018-06-13T11:29:49.351Z,3.27
2018-06-13T11:32:23.387Z,3.87
2018-06-13T11:34:57.258Z,3.50
2018-06-13T11:37:27.910Z,4.13
2018-06-13T11:39:58.577Z,3.70
2018-06-13T11:42:34.131Z,3.20
2018-06-13T11:45:03.795Z,4.47
2018-06-13T11:50:58.723Z,3.77
2018-06-13T11:53:28.570Z,3.73
2018-06-13T11:55:58.366Z,4.30
2018-06-13T11:58:27.499Z,3.70
2018-06-13T12:00:56.892Z,3.27
2018-06-13T12:03:25.358Z,2.97
2018-06-13T12:05:54.464Z,5.40
2018-06-13T12:08:23.411Z,3.40
2018-06-13T12:10:53.777Z,4.10
2018-06-13T12:13:22.239Z,3.50
2018-06-13T12:15:50.647Z,3.80
2018-06-13T12:18:19.117Z,3.43
2018-06-13T12:20:49.952Z,3.40
2018-06-13T12:23:18.434Z,3.30
2018-06-13T12:25:48.255Z,3.37
2018-06-13T12:28:17.456Z,3.00
2018-06-13T12:30:45.936Z,3.87
2018-06-13T12:33:15.634Z,2.90
2018-06-13T12:35:43.973Z,3.07
2018-06-13T12:38:12.287Z,2.93
2018-06-13T12:40:42.354Z,2.23
2018-06-13T12:43:11.890Z,2.90
2018-06-13T12:45:40.456Z,2.50
2018-06-13T12:48:19.105Z,2.50
2018-06-13T12:50:50.449Z,2.37
2018-06-13T12:53:19.447Z,2.53
2018-06-13T12:55:48.135Z,2.70
2018-06-13T12:58:18.440Z,2.27
2018-06-13T13:00:47.555Z,2.10
2018-06-13T13:03:17.442Z,2.20
2018-06-13T13:05:46.326Z,2.77
2018-06-13T13:08:14.801Z,2.10
2018-06-13T13:10:47.195Z,2.37
2018-06-13T13:13:19.923Z,3.50
2018-06-13T13:15:48.761Z,2.27
2018-06-13T13:18:19.079Z,2.10
2018-06-13T13:20:52.687Z,2.30
2018-06-13T13:23:26.860Z,2.70
2018-06-13T13:25:56.927Z,2.13
2018-06-13T13:28:30.098Z,2.57
2018-06-13T13:31:00.537Z,2.80
2018-06-13T13:33:29.102Z,3.60
2018-06-13T13:35:58.233Z,2.20
2018-06-13T13:38:28.107Z,2.13
2018-06-13T13:41:03.421Z,2.30
2018-06-13T13:43:36.275Z,2.47
2018-06-13T13:46:10.422Z,1.90
2018-06-13T13:48:41.715Z,2.17
2018-06-13T13:51:10.811Z,2.07
2018-06-13T13:53:40.589Z,2.17
2018-06-13T13:56:14.511Z,2.20
2018-06-13T13:58:47.594Z,1.97
2018-06-13T14:01:17.766Z,2.43
2018-06-13T14:03:48.831Z,2.27
2018-06-13T14:06:20.891Z,2.47
2018-06-13T14:08:50.586Z,2.27
2018-06-13T14:11:19.758Z,2.40
2018-06-13T14:13:50.770Z,2.70
2018-06-13T14:16:20.206Z,2.53
2018-06-13T14:18:49.423Z,5.27
2018-06-13T14:21:17.725Z,2.70
2018-06-13T14:23:46.694Z,3.60
2018-06-13T14:26:21.321Z,12.20
2018-06-13T14:28:52.437Z,2.90
2018-06-13T14:31:21.899Z,3.00
2018-06-13T14:33:54.807Z,2.90
2018-06-13T14:36:24.620Z,3.43
2018-06-13T14:38:54.075Z,3.17
2018-06-13T14:41:22.472Z,3.20
2018-06-13T14:43:51.629Z,2.70
2018-06-13T14:46:19.938Z,3.33
2018-06-13T14:48:48.873Z,2.93
2018-06-13T14:51:17.895Z,2.90
2018-06-13T14:53:46.995Z,2.80
2018-06-13T14:56:21.370Z,3.00
2018-06-13T14:58:50.587Z,3.03
2018-06-13T15:01:18.927Z,2.60
2018-06-13T15:03:48.400Z,3.30
2018-06-13T15:06:16.780Z,2.60
2018-06-13T15:08:48.852Z,3.60
2018-06-13T15:11:17.516Z,3.20
2018-06-13T15:13:47.915Z,2.83
2018-06-13T15:16:17.243Z,2.63
2018-06-13T15:18:46.156Z,2.70
2018-06-13T15:21:15.248Z,2.60
2018-06-13T15:23:44.033Z,3.33
2018-06-13T15:26:13.864Z,2.57
2018-06-13T15:28:42.730Z,2.40
2018-06-13T15:31:11.183Z,2.30
2018-06-13T15:33:41.361Z,2.13
2018-06-13T15:36:27.753Z,2.00
2018-06-13T15:38:57.742Z,1.65
2018-06-13T15:41:27.625Z,1.90
2018-06-13T15:43:58.671Z,1.60
2018-06-13T15:46:28.700Z,1.50
2018-06-13T15:49:10.904Z,1.60
2018-06-13T15:51:51.757Z,1.72
2018-06-13T15:56:57.288Z,1.72
2018-06-13T15:59:33.181Z,1.80
2018-06-13T16:02:02.672Z,1.52
2018-06-13T16:07:19.879Z,1.60
2018-06-13T16:10:03.990Z,1.47
2018-06-13T16:12:37.352Z,2.58
2018-06-13T16:15:16.020Z,1.62
2018-06-13T16:17:50.215Z,1.90
2018-06-13T16:20:23.142Z,3.02
2018-06-13T16:26:50.137Z,2.58
2018-06-13T16:36:17.687Z,2.72
2018-06-13T16:39:41.819Z,2.58
2018-06-13T16:42:18.277Z,2.90
2018-06-13T16:44:50.695Z,2.90
2018-06-13T16:47:36.266Z,2.00
2018-06-13T16:50:15.942Z,1.60
2018-06-13T16:57:13.862Z,1.93
2018-06-13T16:59:43.687Z,2.30
2018-06-13T17:02:14.920Z,1.73
2018-06-13T17:04:44.662Z,1.67
2018-06-13T17:07:18.702Z,1.73
2018-06-13T17:09:57.370Z,1.73
2018-06-13T17:12:27.763Z,1.60
2018-06-13T17:15:05.283Z,1.67
2018-06-13T17:17:35.241Z,1.60
2018-06-13T17:20:04.129Z,1.50
2018-06-13T17:22:34.499Z,2.10
2018-06-13T17:25:04.972Z,1.33
2018-06-13T17:27:35.501Z,1.83
2018-06-13T17:30:09.165Z,2.47
2018-06-13T17:32:45.034Z,1.60
2018-06-13T17:35:24.676Z,1.90
2018-06-13T17:38:19.074Z,2.20
2018-06-13T17:43:36.176Z,1.17
2018-06-13T17:46:10.634Z,1.67
2018-06-13T17:48:44.215Z,2.27
2018-06-13T17:54:07.091Z,6.60
2018-06-13T17:59:25.568Z,1.40
2018-06-13T18:01:56.858Z,2.10
2018-06-13T18:07:17.448Z,2.00
2018-06-13T18:15:27.827Z,1.47
2018-06-13T18:23:24.811Z,1.50
2018-06-13T18:25:55.315Z,1.60
2018-06-13T18:28:27.850Z,1.73
2018-06-13T18:30:58.586Z,1.97
2018-06-13T18:33:34.995Z,1.70
2018-06-13T18:36:14.650Z,1.50
2018-06-13T18:38:55.166Z,1.60
2018-06-13T18:41:36.585Z,1.17
2018-06-13T18:46:55.015Z,1.60
2018-06-13T18:49:24.811Z,1.37
2018-06-13T18:51:57.194Z,1.30
2018-06-13T18:54:26.399Z,1.30
2018-06-13T18:56:56.246Z,1.30
2018-06-13T18:59:25.172Z,1.90
2018-06-13T19:01:55.979Z,1.43
2018-06-13T19:04:25.269Z,1.53
2018-06-13T19:06:59.947Z,1.13
2018-06-13T19:09:33.432Z,1.27
2018-06-13T19:12:14.391Z,1.13
2018-06-13T19:14:45.946Z,1.23
2018-06-13T19:17:22.624Z,1.10
2018-06-13T19:22:41.496Z,1.27
2018-06-13T19:25:16.381Z,1.13
2018-06-13T19:27:50.088Z,1.67
2018-06-13T19:36:02.934Z,1.70
2018-06-13T19:38:38.464Z,2.77
2018-06-13T19:41:08.959Z,1.63
2018-06-13T19:43:45.026Z,1.40
2018-06-13T19:46:22.900Z,1.53
2018-06-13T19:48:54.521Z,1.00
2018-06-13T19:51:24.436Z,1.20
2018-06-13T19:54:04.458Z,1.23
2018-06-13T19:56:49.367Z,1.20
2018-06-13T19:59:24.828Z,1.27
2018-06-13T20:02:33.088Z,1.80
2018-06-13T20:08:13.750Z,1.13
2018-06-13T20:11:03.521Z,1.33
2018-06-13T20:19:03.305Z,1.20
2018-06-13T20:21:45.603Z,1.10
2018-06-13T20:24:21.116Z,1.03
2018-06-13T20:27:03.206Z,1.23
2018-06-13T20:29:41.677Z,1.37
2018-06-13T20:32:21.241Z,1.37
2018-06-13T20:34:51.755Z,1.13
2018-06-13T20:38:04.276Z,1.30
2018-06-13T20:40:34.992Z,1.00
2018-06-13T20:43:14.747Z,1.83
2018-06-13T20:45:45.250Z,1.10
2018-06-13T20:48:22.071Z,1.30
2018-06-13T20:50:51.767Z,1.43
2018-06-13T20:53:21.304Z,1.37
2018-06-13T20:55:50.889Z,1.30
2018-06-13T20:58:20.117Z,1.23
2018-06-13T21:00:49.486Z,1.50
2018-06-13T21:03:19.168Z,1.17
2018-06-13T21:05:49.259Z,1.20
2018-06-13T21:08:29.056Z,1.00
2018-06-13T21:10:58.576Z,1.23
2018-06-13T21:13:27.720Z,1.13
2018-06-13T21:15:58.288Z,1.10
2018-06-13T21:18:27.690Z,1.10
2018-06-13T21:23:30.520Z,1.00
2018-06-13T21:26:00.475Z,1.20
2018-06-13T21:28:46.235Z,1.27
2018-06-13T21:31:19.047Z,1.30
2018-06-13T21:33:54.976Z,1.83
2018-06-13T21:36:31.874Z,1.00
2018-06-13T21:39:10.398Z,1.20
2018-06-13T21:41:46.980Z,1.00
2018-06-13T21:44:15.617Z,1.10
2018-06-13T21:49:39.348Z,1.30
2018-06-13T21:52:12.524Z,0.73
2018-06-13T21:54:44.028Z,1.40
2018-06-13T21:57:28.361Z,1.07
2018-06-13T22:00:02.840Z,1.20
2018-06-13T22:02:33.480Z,1.13
2018-06-13T22:05:06.986Z,1.17
2018-06-13T22:07:36.184Z,1.60
2018-06-13T22:10:05.734Z,1.20
2018-06-13T22:12:34.562Z,1.00
2018-06-13T22:15:03.519Z,1.13
2018-06-13T22:17:32.350Z,1.47
2018-06-13T22:20:01.189Z,1.33
2018-06-13T22:22:30.135Z,0.90
2018-06-13T22:24:59.570Z,1.10
2018-06-13T22:27:29.099Z,1.10
2018-06-13T22:29:57.839Z,0.83
2018-06-13T22:32:27.734Z,1.20
2018-06-13T22:34:56.482Z,1.13
2018-06-13T22:37:35.368Z,1.20
2018-06-13T22:40:08.087Z,0.90
2018-06-13T22:42:37.528Z,1.00
2018-06-13T22:45:06.974Z,1.13
2018-06-13T22:48:02.567Z,1.10
2018-06-13T22:50:31.887Z,1.10
2018-06-13T22:53:02.059Z,1.10
2018-06-13T22:55:32.491Z,1.20
2018-06-13T22:58:01.889Z,1.43
2018-06-13T23:03:17.684Z,1.27
2018-06-13T23:05:50.779Z,1.13
2018-06-13T23:08:34.471Z,1.50
2018-06-13T23:11:03.460Z,1.30
2018-06-13T23:13:33.131Z,1.17
2018-06-13T23:16:02.215Z,1.23
2018-06-13T23:18:31.209Z,1.27
2018-06-13T23:21:00.346Z,1.50
2018-06-13T23:23:32.284Z,1.37
2018-06-13T23:26:00.931Z,1.13
2018-06-13T23:28:32.483Z,1.10
2018-06-13T23:31:02.058Z,1.10
2018-06-13T23:33:31.180Z,1.30
2018-06-13T23:36:00.004Z,1.23
2018-06-13T23:38:29.052Z,1.40
2018-06-13T23:40:58.416Z,1.40
2018-06-13T23:43:27.160Z,1.07
2018-06-13T23:45:56.072Z,1.00
2018-06-13T23:48:25.267Z,1.20
2018-06-13T23:50:54.138Z,1.10
2018-06-13T23:53:24.122Z,1.10
2018-06-13T23:55:52.624Z,1.17
2018-06-13T23:58:22.638Z,1.20
